Time;durP1;ratioP1;P1;durP2;ratioP2;P2;SDS_P1;SDS_P2;PMS_P1;PMS_P2;Temp;Humidity;BMP_temperature;BMP_pressure;BME280_temperature;BME280_humidity;BME280_pressure;Samples;Min_cycle;Max_cycle;Signal;HPM_P1;HPM_P2
2021/12/05 00:17:42;;;;;;;54.83;50.98;;;;;;;6.37;100.00;99957.55;1865335;75;935139;-73
2021/12/05 00:20:37;;;;;;;53.80;50.10;;;;;;;6.46;100.00;99956.43;1925936;73;936773;-75
2021/12/05 00:22:58;;;;;;;54.07;50.47;;;;;;;6.49;100.00;99944.02;1913484;72;936728;-73
2021/12/05 00:25:31;;;;;;;54.63;50.87;;;;;;;6.46;100.00;99947.36;1932685;72;935104;-74
2021/12/05 00:28:24;;;;;;;54.67;51.30;;;;;;;6.50;100.00;99948.44;1932645;72;936952;-74
2021/12/05 00:31:02;;;;;;;55.57;52.03;;;;;;;6.52;100.00;99938.77;1919607;72;936932;-73
2021/12/05 00:33:36;;;;;;;52.07;48.63;;;;;;;6.59;100.00;99935.73;1947018;72;934664;-74
2021/12/05 00:37:08;;;;;;;51.67;48.27;;;;;;;6.60;100.00;99946.47;1948940;72;936726;-73
2021/12/05 00:39:22;;;;;;;50.95;47.78;;;;;;;6.62;100.00;99948.95;1937060;72;936853;-73
2021/12/05 00:42:03;;;;;;;53.20;49.67;;;;;;;6.63;100.00;99949.23;1935951;71;936819;-73
2021/12/05 00:45:05;;;;;;;53.37;49.77;;;;;;;6.62;100.00;99940.67;1947743;72;934737;-75
2021/12/05 00:47:36;;;;;;;53.13;49.73;;;;;;;6.60;100.00;99947.84;1944298;72;934881;-74
2021/12/05 00:59:41;;;;;;;54.47;50.87;;;;;;;6.62;100.00;99945.64;1970571;71;86392;-70
2021/12/05 01:17:51;;;;;;;55.03;51.33;;;;;;;6.57;100.00;99991.73;1891868;74;85634;-73
2021/12/05 01:23:39;;;;;;;55.40;51.60;;;;;;;6.43;100.00;99996.98;1845917;76;85784;-74
2021/12/05 01:29:30;;;;;;;55.63;52.03;;;;;;;6.30;100.00;99997.02;1888547;73;86612;-74
2021/12/05 01:35:15;;;;;;;55.20;51.17;;;;;;;6.34;100.00;100006.93;1908028;74;86519;-71
2021/12/05 01:41:15;;;;;;;53.57;50.07;;;;;;;6.33;100.00;100019.89;1912281;73;86507;-70
2021/12/05 01:47:26;;;;;;;54.53;50.67;;;;;;;6.23;100.00;100024.06;1985133;71;40452;-74
2021/12/05 01:59:13;;;;;;;51.83;48.33;;;;;;;6.12;100.00;100021.59;1919004;73;86373;-74
2021/12/05 02:11:12;;;;;;;53.03;49.53;;;;;;;6.29;100.00;100054.64;1983977;71;39540;-73
2021/12/05 02:35:15;;;;;;;50.87;47.57;;;;;;;6.45;100.00;100065.69;1911367;74;86177;-71
2021/12/05 02:41:02;;;;;;;52.60;49.27;;;;;;;6.51;100.00;100073.66;1941672;71;39523;-70
2021/12/05 02:46:39;;;;;;;54.03;50.63;;;;;;;6.48;100.00;100083.05;1844515;76;85706;-71
2021/12/05 02:52:28;;;;;;;52.73;49.53;;;;;;;6.46;100.00;100074.24;1799682;78;86293;-73
2021/12/05 02:58:24;;;;;;;51.60;48.60;;;;;;;6.50;100.00;100076.17;1887794;74;86525;-70
2021/12/05 03:04:05;;;;;;;51.67;48.57;;;;;;;6.49;100.00;100083.34;1915419;72;86470;-74
2021/12/05 03:09:48;;;;;;;51.17;48.27;;;;;;;6.49;100.00;100095.75;1941418;71;39669;-71
2021/12/05 03:15:33;;;;;;;51.30;48.23;;;;;;;6.51;100.00;100094.35;1820041;76;87024;-70
2021/12/05 03:21:18;;;;;;;51.43;48.33;;;;;;;6.48;100.00;100096.84;1872706;75;87004;-71
2021/12/05 03:27:06;;;;;;;51.67;48.77;;;;;;;6.49;100.00;100088.85;1906636;73;86127;-73
2021/12/05 03:32:50;;;;;;;52.50;49.30;;;;;;;6.47;100.00;100080.84;1916964;71;39710;-73
2021/12/05 03:38:36;;;;;;;54.13;51.03;;;;;;;6.44;100.00;100091.61;1844880;76;86127;-74
2021/12/05 03:44:23;;;;;;;56.20;52.90;;;;;;;6.37;100.00;100100.97;1826468;78;86057;-70
2021/12/05 03:50:13;;;;;;;57.83;54.37;;;;;;;6.31;100.00;100105.40;1843799;75;86208;-73
2021/12/05 03:56:03;;;;;;;51.47;48.57;;;;;;;6.29;100.00;100105.66;1910280;74;86632;-71
2021/12/05 04:01:47;;;;;;;49.97;47.17;;;;;;;6.31;100.00;100111.75;1956296;71;39754;-74
2021/12/05 04:10:48;;;;;;;49.33;46.63;;;;;;;6.31;100.00;100099.34;1974568;71;39589;-71
2021/12/05 04:16:34;;;;;;;51.60;48.60;;;;;;;6.30;100.00;100106.50;1828584;76;86119;-73
2021/12/05 04:22:19;;;;;;;51.23;48.33;;;;;;;6.31;100.00;100115.88;1913351;74;86226;-73
2021/12/05 04:28:05;;;;;;;52.87;49.77;;;;;;;6.23;100.00;100115.05;1907621;74;86567;-73
2021/12/05 04:33:52;;;;;;;51.30;48.40;;;;;;;6.17;100.00;100118.90;1976289;71;39730;-73
2021/12/05 04:39:37;;;;;;;49.63;46.83;;;;;;;6.17;100.00;100136.81;1844087;76;86472;-74
2021/12/05 04:45:25;;;;;;;49.30;46.50;;;;;;;6.26;100.00;100148.97;1806440;78;86511;-71
2021/12/05 04:51:11;;;;;;;48.87;46.17;;;;;;;6.35;100.00;100158.91;1981026;71;86237;-74
2021/12/05 04:56:58;;;;;;;47.70;45.10;;;;;;;6.42;100.00;100169.69;1911339;73;86470;-74
2021/12/05 05:02:43;;;;;;;50.00;47.30;;;;;;;6.42;100.00;100169.11;1956840;70;39674;-70
2021/12/05 05:08:30;;;;;;;47.03;44.43;;;;;;;6.46;100.00;100175.73;1836730;76;85615;-75
2021/12/05 05:14:14;;;;;;;49.00;46.40;;;;;;;6.51;100.00;100169.39;1898102;73;86397;-75
2021/12/05 05:20:03;;;;;;;46.33;43.87;;;;;;;6.50;100.00;100186.52;1912735;74;86770;-74
2021/12/05 05:50:07;;;;;;;45.50;43.00;;;;;;;6.53;100.00;100198.38;1910388;72;86657;-74
2021/12/05 05:55:53;;;;;;;45.90;43.30;;;;;;;6.60;100.00;100217.41;1984029;71;39658;-75
2021/12/05 06:02:03;;;;;;;47.73;44.97;;;;;;;6.63;100.00;100205.84;1801167;78;86345;-71
2021/12/05 06:07:31;;;;;;;47.17;44.37;;;;;;;6.56;100.00;100217.68;1978938;70;86727;-74
2021/12/05 06:13:14;;;;;;;46.07;43.47;;;;;;;6.59;100.00;100226.23;1891762;73;86441;-70
2021/12/05 06:18:58;;;;;;;48.67;45.93;;;;;;;6.53;100.00;100230.66;1925967;71;86563;-74
2021/12/05 06:24:42;;;;;;;47.40;44.70;;;;;;;6.53;100.00;100233.41;1961293;71;39590;-69
2021/12/05 06:30:37;;;;;;;47.17;44.57;;;;;;;6.53;100.00;100239.76;1884496;74;85230;-73
2021/12/05 06:48:26;;;;;;;47.70;45.00;;;;;;;6.47;100.00;100277.25;1880319;74;85289;-73
2021/12/05 06:54:10;;;;;;;47.63;45.03;;;;;;;6.53;100.00;100289.97;1803477;78;86284;-74
2021/12/05 06:59:54;;;;;;;46.63;44.03;;;;;;;6.57;100.00;100296.59;1928097;73;85886;-71
2021/12/05 07:05:49;;;;;;;48.47;45.77;;;;;;;6.47;100.00;100297.39;1802964;77;86203;-71
2021/12/05 07:11:32;;;;;;;47.40;44.70;;;;;;;6.47;100.00;100315.33;1847476;76;86395;-74
2021/12/05 07:23:19;;;;;;;46.53;43.83;;;;;;;6.54;100.00;100325.58;1921421;74;86588;-68
2021/12/05 07:40:57;;;;;;;49.63;46.70;;;;;;;6.47;100.00;100375.19;1919235;72;87230;-69
2021/12/05 07:46:41;;;;;;;47.50;44.90;;;;;;;6.45;100.00;100379.61;1986302;71;39469;-70
2021/12/05 07:52:28;;;;;;;48.60;45.90;;;;;;;6.49;100.00;100393.69;1886586;74;86718;-69
2021/12/05 07:58:26;;;;;;;48.40;45.70;;;;;;;6.51;100.00;100404.73;1873477;75;86293;-69
2021/12/05 08:16:02;;;;;;;49.10;46.27;;;;;;;6.45;100.00;100418.78;1915191;73;86613;-75
2021/12/05 08:21:46;;;;;;;47.20;44.60;;;;;;;6.47;100.00;100426.22;1979663;71;39769;-69
2021/12/05 08:27:30;;;;;;;48.60;46.00;;;;;;;6.49;100.00;100427.63;1949130;72;86415;-71
2021/12/05 08:33:31;;;;;;;51.63;48.63;;;;;;;6.54;100.00;100438.70;1848063;76;86442;-73
2021/12/05 08:39:45;;;;;;;47.73;45.10;;;;;;;6.54;100.00;100455.25;1908675;72;86483;-72
2021/12/05 08:45:39;;;;;;;48.17;45.50;;;;;;;6.65;100.00;100478.19;1924404;73;86124;-75
2021/12/05 09:21:59;;;;;;;46.30;43.70;;;;;;;6.98;100.00;100530.24;1913639;74;86863;-74
2021/12/05 10:10:27;;;;;;;47.13;44.30;;;;;;;7.28;100.00;100638.10;1883416;74;86669;-72
2021/12/05 10:16:16;;;;;;;46.20;43.20;;;;;;;7.34;100.00;100638.97;1909100;72;86416;-73
2021/12/05 10:34:46;;;;;;;49.90;47.10;;;;;;;7.54;100.00;100662.54;1837914;76;86825;-72
2021/12/05 10:40:34;;;;;;;51.07;48.03;;;;;;;7.50;100.00;100673.85;1799970;78;86456;-75
2021/12/05 10:46:15;;;;;;;51.30;48.47;;;;;;;7.49;100.00;100677.71;1887227;73;86398;-72
2021/12/05 10:52:01;;;;;;;50.73;48.03;;;;;;;7.50;100.00;100673.85;1918399;74;85736;-71
2021/12/05 10:57:52;;;;;;;50.33;47.50;;;;;;;7.53;100.00;100678.83;1972632;71;39531;-75
2021/12/05 11:03:36;;;;;;;49.90;46.80;;;;;;;7.58;100.00;100670.57;1847107;75;85644;-74
2021/12/05 11:09:34;;;;;;;49.73;46.93;;;;;;;7.64;100.00;100682.48;1839595;76;86597;-72
2021/12/05 11:15:25;;;;;;;49.03;46.23;;;;;;;7.85;100.00;100687.00;1839115;76;86413;-72
2021/12/05 11:21:29;;;;;;;49.33;46.47;;;;;;;7.82;100.00;100685.33;1936742;72;86619;-73
2021/12/05 11:27:29;;;;;;;51.23;48.30;;;;;;;7.97;100.00;100695.88;1806035;78;86602;-73
2021/12/05 11:33:20;;;;;;;50.03;47.23;;;;;;;7.78;100.00;100694.72;1871438;75;86223;-74
2021/12/05 11:39:24;;;;;;;50.23;47.57;;;;;;;7.76;100.00;100711.57;1904688;73;86255;-74
2021/12/05 11:45:10;;;;;;;52.10;49.30;;;;;;;7.77;100.00;100720.16;1917775;72;86728;-74
2021/12/05 11:50:54;;;;;;;50.97;48.03;;;;;;;7.78;100.00;100708.00;1918284;72;86037;-71
2021/12/05 11:56:56;;;;;;;50.23;47.50;;;;;;;7.87;100.00;100717.98;1934563;73;86552;-77
2021/12/05 12:02:44;;;;;;;50.80;47.90;;;;;;;7.83;100.00;100724.33;1983949;71;39655;-75
2021/12/05 12:08:32;;;;;;;48.60;45.80;;;;;;;8.02;100.00;100721.34;1897077;75;86404;-69
2021/12/05 12:14:14;;;;;;;48.50;45.70;;;;;;;7.92;100.00;100718.53;1869298;75;86433;-70
2021/12/05 12:19:57;;;;;;;46.97;44.37;;;;;;;8.01;100.00;100728.80;1930886;71;86350;-70
2021/12/05 12:25:45;;;;;;;46.47;43.77;;;;;;;7.95;100.00;100734.05;1973225;71;39672;-68
2021/12/05 12:31:34;;;;;;;48.63;45.80;;;;;;;7.96;100.00;100737.08;1846857;76;86604;-68
2021/12/05 12:37:20;;;;;;;46.30;43.20;;;;;;;8.05;100.00;100743.75;1878756;73;86475;-68
2021/12/05 12:43:06;;;;;;;53.27;50.27;;;;;;;8.02;100.00;100749.00;1909723;72;86685;-68
2021/12/05 12:48:56;;;;;;;54.83;51.37;;;;;;;7.88;100.00;100758.34;1916228;74;86498;-69
2021/12/05 12:54:48;;;;;;;56.33;52.80;;;;;;;7.85;100.00;100772.72;1973143;71;39658;-71
2021/12/05 13:00:36;;;;;;;55.70;52.13;;;;;;;7.88;100.00;100778.25;1979286;70;86411;-68
2021/12/05 13:12:49;;;;;;;57.17;53.67;;;;;;;8.02;100.00;100805.16;1807060;78;86641;-69
2021/12/05 13:18:43;;;;;;;54.70;51.00;;;;;;;7.97;100.00;100812.05;1985192;71;39589;-68
2021/12/05 13:24:32;;;;;;;56.30;52.70;;;;;;;7.95;100.00;100812.87;1818158;77;86354;-72
2021/12/05 13:30:30;;;;;;;57.93;54.33;;;;;;;7.91;100.00;100828.34;1888313;74;86376;-73
2021/12/05 13:36:35;;;;;;;57.63;53.93;;;;;;;7.90;100.00;100845.20;1824478;75;86500;-71
2021/12/05 13:42:23;;;;;;;57.97;53.90;;;;;;;7.80;100.00;100859.78;1875266;75;86325;-71
2021/12/05 13:48:26;;;;;;;58.47;54.47;;;;;;;7.73;100.00;100883.53;1807631;78;86178;-73
2021/12/05 13:54:21;;;;;;;58.17;54.37;;;;;;;7.69;100.00;100895.39;1873552;73;86433;-77
2021/12/05 14:00:41;;;;;;;57.50;53.60;;;;;;;7.65;100.00;100901.16;1794488;78;86569;-76
2021/12/05 14:06:31;;;;;;;57.30;53.50;;;;;;;7.68;100.00;100918.05;1884111;74;86047;-74
2021/12/05 14:12:18;;;;;;;58.17;54.37;;;;;;;7.71;100.00;100920.82;1903521;73;86552;-74
2021/12/05 14:18:04;;;;;;;56.13;52.27;;;;;;;7.74;100.00;100926.65;1915160;73;86379;-75
2021/12/05 14:23:52;;;;;;;59.37;55.60;;;;;;;7.77;100.00;100929.45;1983995;71;40319;-71
2021/12/05 14:29:33;;;;;;;59.10;55.30;;;;;;;7.86;100.00;100936.70;1800814;78;86138;-75
2021/12/05 14:35:22;;;;;;;60.20;56.50;;;;;;;7.91;100.00;100947.81;1871619;74;85738;-75
2021/12/05 14:41:08;;;;;;;60.87;56.97;;;;;;;7.93;100.00;100955.28;1904470;74;86418;-70
2021/12/05 14:47:00;;;;;;;60.10;56.40;;;;;;;7.94;100.00;100974.39;1927318;71;39627;-75
2021/12/05 14:52:48;;;;;;;60.57;56.77;;;;;;;7.97;100.00;100989.61;1972694;71;46758;-77
2021/12/05 14:58:33;;;;;;;59.43;55.60;;;;;;;8.01;100.00;100999.87;1968986;71;86556;-76
2021/12/05 15:04:23;;;;;;;59.93;56.03;;;;;;;7.92;100.00;101002.84;1896945;74;86349;-69
2021/12/05 15:10:11;;;;;;;59.00;55.30;;;;;;;7.92;100.00;101024.97;1913954;72;86427;-71
2021/12/05 15:15:55;;;;;;;60.57;56.77;;;;;;;7.94;100.00;101040.77;1913465;73;86339;-70
2021/12/05 15:21:45;;;;;;;62.20;58.30;;;;;;;7.93;100.00;101046.55;1980025;71;39474;-73
2021/12/05 15:27:33;;;;;;;61.40;57.27;;;;;;;7.94;100.00;101065.66;1878614;74;86643;-77
2021/12/05 15:33:21;;;;;;;62.20;58.40;;;;;;;7.96;100.00;101074.52;1870011;75;86512;-72
2021/12/05 15:39:19;;;;;;;61.77;57.77;;;;;;;7.93;100.00;101081.13;1938933;72;86542;-76
2021/12/05 15:45:05;;;;;;;63.33;59.13;;;;;;;7.92;100.00;101088.58;1918440;73;86490;-74
2021/12/05 15:50:55;;;;;;;59.57;55.77;;;;;;;7.89;100.00;101101.56;1955716;71;40699;-71
2021/12/05 15:56:40;;;;;;;56.33;52.73;;;;;;;7.92;100.00;101113.48;1911392;74;40296;-73
2021/12/05 16:02:28;;;;;;;61.30;57.40;;;;;;;7.89;100.00;101131.98;1898765;74;86477;-72
2021/12/05 16:08:14;;;;;;;56.33;52.53;;;;;;;7.83;100.00;101132.20;1789799;79;86786;-72
2021/12/05 16:13:57;;;;;;;57.43;53.53;;;;;;;7.89;100.00;101148.58;1914178;72;86539;-70
2021/12/05 16:20:17;;;;;;;58.13;54.43;;;;;;;7.90;100.00;101146.11;1979837;70;40567;-74
2021/12/05 16:29:28;;;;;;;53.27;49.73;;;;;;;7.85;100.00;101161.80;1843843;76;86979;-75
2021/12/05 16:35:24;;;;;;;54.27;50.50;;;;;;;7.80;100.00;101173.64;1879320;74;86568;-75
2021/12/05 16:41:16;;;;;;;52.63;49.03;;;;;;;7.90;100.00;101180.68;1910847;74;85742;-71
2021/12/05 16:47:27;;;;;;;54.33;50.73;;;;;;;7.87;100.00;101195.58;1886656;74;86573;-74
2021/12/05 16:53:14;;;;;;;54.37;50.57;;;;;;;7.76;100.00;101202.91;1865162;75;86439;-70
2021/12/05 16:59:09;;;;;;;56.03;52.07;;;;;;;7.68;100.00;101212.49;1908355;72;86629;-71
2021/12/05 17:05:00;;;;;;;54.53;50.93;;;;;;;7.72;100.00;101216.41;1926339;71;39495;-75
2021/12/05 17:14:04;;;;;;;56.40;52.60;;;;;;;7.59;100.00;101236.69;1933087;73;86015;-75
2021/12/05 17:23:00;;;;;;;54.80;51.20;;;;;;;7.76;100.00;101254.06;1891094;75;86817;-75
2021/12/05 17:28:50;;;;;;;54.60;50.93;;;;;;;7.80;100.00;101270.42;1928888;71;39737;-75
2021/12/05 17:34:42;;;;;;;55.30;51.57;;;;;;;7.81;100.00;101282.33;1871056;74;85616;-74
2021/12/05 17:43:40;;;;;;;56.23;52.40;;;;;;;7.87;100.00;101295.98;1961573;71;39592;-71
2021/12/05 17:49:27;;;;;;;56.47;52.53;;;;;;;7.92;100.00;101306.25;1885622;74;86437;-74
2021/12/05 17:55:18;;;;;;;57.47;53.97;;;;;;;7.86;100.00;101312.83;1887378;73;85264;-70
2021/12/05 18:07:06;;;;;;;58.70;54.90;;;;;;;7.82;100.00;101327.71;1914252;74;86646;-77
2021/12/05 18:12:50;;;;;;;59.93;56.13;;;;;;;7.75;100.00;101331.19;1939448;71;39658;-77
2021/12/05 18:18:38;;;;;;;57.60;53.87;;;;;;;7.82;100.00;101341.54;1962030;71;86530;-77
2021/12/05 18:24:25;;;;;;;58.27;54.47;;;;;;;7.86;100.00;101356.53;1874533;74;86293;-76
2021/12/05 18:30:13;;;;;;;57.40;53.80;;;;;;;7.86;100.00;101362.06;1846020;76;86012;-71
2021/12/05 18:35:59;;;;;;;57.80;54.07;;;;;;;7.78;100.00;101370.80;1900569;72;86453;-70
2021/12/05 18:41:44;;;;;;;59.23;55.27;;;;;;;7.86;100.00;101383.34;1985767;71;39572;-70
2021/12/05 18:47:30;;;;;;;56.90;53.30;;;;;;;7.83;100.00;101391.59;1853513;76;85977;-77
2021/12/05 18:53:17;;;;;;;57.97;54.23;;;;;;;7.77;100.00;101406.45;1902874;72;86641;-72
2021/12/05 18:59:03;;;;;;;58.03;54.43;;;;;;;7.71;100.00;101404.14;1909775;74;86782;-73
2021/12/05 19:04:50;;;;;;;57.07;53.43;;;;;;;7.64;100.00;101412.33;1919401;71;39534;-79
2021/12/05 19:16:30;;;;;;;57.57;53.83;;;;;;;7.53;100.00;101413.27;1858393;76;86275;-75
2021/12/05 19:22:17;;;;;;;55.43;51.97;;;;;;;7.60;100.00;101424.44;1850696;76;86635;-76
2021/12/05 19:28:05;;;;;;;52.30;48.50;;;;;;;7.57;100.00;101427.69;1935719;72;85388;-72
2021/12/05 19:33:50;;;;;;;54.43;50.90;;;;;;;7.58;100.00;101425.76;1983666;71;40787;-78
2021/12/05 19:39:36;;;;;;;56.63;53.03;;;;;;;7.52;100.00;101431.77;1842778;76;86397;-70
2021/12/05 19:45:22;;;;;;;54.10;50.60;;;;;;;7.47;100.00;101430.84;1794430;78;86063;-77
2021/12/05 19:51:11;;;;;;;53.43;50.13;;;;;;;7.55;100.00;101417.44;1909226;74;86648;-72
2021/12/05 19:56:57;;;;;;;54.97;51.17;;;;;;;7.54;100.00;101421.28;1872060;74;86495;-75
2021/12/05 20:02:44;;;;;;;53.17;49.67;;;;;;;7.59;100.00;101431.05;1980323;71;40405;-72
2021/12/05 20:08:32;;;;;;;57.43;53.73;;;;;;;7.46;100.00;101439.67;1837330;76;86426;-71
2021/12/05 20:14:16;;;;;;;56.00;52.10;;;;;;;7.41;100.00;101454.78;1910582;73;86181;-71
2021/12/05 20:20:03;;;;;;;59.07;55.03;;;;;;;7.28;100.00;101461.45;1918796;74;86355;-72
2021/12/05 20:25:50;;;;;;;58.50;54.40;;;;;;;7.23;100.00;101461.94;1976945;71;39384;-77
2021/12/05 20:31:35;;;;;;;57.23;53.07;;;;;;;7.23;100.00;101472.41;1830889;76;87120;-75
2021/12/05 20:37:20;;;;;;;58.03;54.03;;;;;;;7.18;100.00;101473.73;1874444;74;86069;-75
2021/12/05 20:43:06;;;;;;;57.30;53.17;;;;;;;7.04;100.00;101479.24;1855330;75;85402;-73
2021/12/05 20:48:51;;;;;;;57.73;53.57;;;;;;;6.96;100.00;101485.70;1980937;71;39541;-72
2021/12/05 20:54:35;;;;;;;58.40;54.30;;;;;;;6.97;100.00;101499.28;1845198;76;86671;-74
2021/12/05 21:00:23;;;;;;;58.47;54.27;;;;;;;6.99;100.00;101512.28;1797440;78;86283;-72
2021/12/05 21:06:10;;;;;;;59.30;54.80;;;;;;;6.88;100.00;101517.85;1917339;74;86286;-75
2021/12/05 21:11:54;;;;;;;59.97;55.77;;;;;;;6.87;100.00;101532.20;1861692;75;86283;-72
2021/12/05 21:17:40;;;;;;;60.87;56.80;;;;;;;6.93;100.00;101538.11;1895012;74;85614;-71
2021/12/05 21:23:28;;;;;;;64.30;59.90;;;;;;;6.96;100.00;101548.69;1848973;76;86651;-74
2021/12/05 21:29:14;;;;;;;64.07;59.40;;;;;;;6.79;100.00;101549.15;1892772;75;86612;-72
2021/12/05 21:34:58;;;;;;;63.50;58.93;;;;;;;6.65;100.00;101551.86;1901887;72;86595;-72
2021/12/05 21:40:45;;;;;;;64.60;60.00;;;;;;;6.64;100.00;101557.08;1969986;71;39624;-76
2021/12/05 21:46:30;;;;;;;67.43;62.57;;;;;;;6.55;100.00;101549.70;1924022;72;86261;-74
2021/12/05 21:52:14;;;;;;;63.67;59.07;;;;;;;6.45;100.00;101538.45;1877432;76;86223;-72
2021/12/05 21:57:59;;;;;;;66.37;61.50;;;;;;;6.36;100.00;101538.52;1909563;73;86193;-75
2021/12/05 22:03:44;;;;;;;64.47;59.67;;;;;;;6.22;100.00;101549.48;1982127;71;39459;-74
2021/12/05 22:09:27;;;;;;;65.97;60.63;;;;;;;6.09;100.00;101568.48;1851412;76;86135;-75
2021/12/05 22:15:14;;;;;;;66.60;61.60;;;;;;;6.15;100.00;101563.95;1870975;75;86970;-71
2021/12/05 22:21:13;;;;;;;65.67;60.73;;;;;;;6.07;100.00;101562.38;1904561;74;86936;-75
2021/12/05 22:26:59;;;;;;;68.33;63.13;;;;;;;6.03;100.00;101550.16;1935334;73;86639;-75
2021/12/05 22:32:43;;;;;;;67.93;62.80;;;;;;;5.91;100.00;101552.03;1985696;71;39676;-71
2021/12/05 22:38:28;;;;;;;63.60;58.97;;;;;;;5.17;100.00;101565.73;1851011;76;86388;-72
2021/12/05 22:44:12;;;;;;;62.17;57.10;;;;;;;5.52;100.00;101585.71;1869713;76;86917;-72
2021/12/05 22:49:56;;;;;;;62.20;57.57;;;;;;;5.81;100.00;101595.33;1899461;72;86388;-69
2021/12/05 22:55:40;;;;;;;66.17;61.37;;;;;;;5.85;100.00;101614.46;1985647;71;39575;-74
2021/12/05 23:01:25;;;;;;;67.43;62.53;;;;;;;5.83;100.00;101616.59;1888109;74;85514;-72
2021/12/05 23:07:12;;;;;;;66.17;61.10;;;;;;;5.68;100.00;101618.11;1871701;75;86395;-71
2021/12/05 23:12:56;;;;;;;67.20;62.30;;;;;;;5.69;100.00;101615.10;1937422;73;86376;-75
2021/12/05 23:18:43;;;;;;;65.00;59.73;;;;;;;5.66;100.00;101627.14;1981033;71;39655;-73
2021/12/05 23:24:31;;;;;;;65.50;60.63;;;;;;;5.66;100.00;101645.05;1860792;76;86376;-75
2021/12/05 23:30:20;;;;;;;65.87;60.87;;;;;;;5.52;100.00;101651.84;1913468;73;86632;-74
2021/12/05 23:36:08;;;;;;;63.10;58.40;;;;;;;5.48;100.00;101664.69;1931650;73;86401;-75
2021/12/05 23:41:55;;;;;;;66.07;61.07;;;;;;;5.39;100.00;101677.66;1982779;71;39627;-75
2021/12/05 23:47:42;;;;;;;68.03;63.03;;;;;;;5.28;100.00;101695.78;1982844;71;39660;-72
2021/12/05 23:53:27;;;;;;;64.90;59.93;;;;;;;5.26;100.00;101688.27;1832121;76;86323;-75
2021/12/05 23:59:12;;;;;;;65.53;60.63;;;;;;;5.43;100.00;101678.88;1871694;73;86435;-72
